Huvudsida
METAR-TAF:

METAR-TAF

Flygplatser :

Heidrun, Norge

latitud: 65-19-30N, longitud: 007-19-36E, höjd: 0 m

Aktuellt väderrapport

Denna rapport gjordes för 23 minuter sedan, klockan 00:50 UTC
Vind 26 kt från väst/sydväst
Temperatur 7°C
Fuktighet 93%
Tryck 1017 hPa
Sikt: 8000 m
Brutna moln på en höjd av 1000 ft

METAR: ENHE 210050Z 25026KT 8000 BKN010 07/06 Q1017 W///S4

Tid: 03:13 (01:13 UTC)

Väderprognos

Denna rapport gjordes för 2 timmar och 13 minuter sedan, klockan 23:00 UTC
Prognos gäller från 21 kl. 00 UTC till 21 kl. 09 UTC
Vind 32 kt från väst/sydväst
Sikt: 8000 m
Spridda moln på en höjd av 800 ft
Brutna moln på en höjd av 1500 ft
Temporärt
från 21 kl. 00 UTC till 21 kl. 03 UTC
Sikt: 4000 m
Mulet på en höjd av 600 ft
lätta regnskurar, fuktdis

TAF: ENHE 202300Z 2100/2109 24032KT 8000 SCT008 BKN015 TEMPO 2100/2103 4000 -SHRA BR OVC006

Aktuella väderrapporter och prognoser från 4000 flygplatser (METAR- och TAF-rapporter).

De tillgängliga stationerna syns som gula och röda prickar på kartan.

För musen över prickarna för att se namnen på stationerna.

Klicka sedan för att få väderrapporter och prognoser.

För att ändra kartan: Klicka på de gröna knapparna med ett svart kors på för att zooma in; den gröna knappen med ett streck på för att zooma ut; eller på de gröna pilarna för angränsande kartor.


METAR-TAF: